This is the latest recevied weather packets stored in our database for station/object K3MV-13. If no packets are shown the sender has not sent any weather packets the latest 10 day(s).
| Time | Temp. | Humidity | Pressure | Rain* | Wind** | Luminosity | Snow |
|---|---|---|---|---|---|---|---|
| 1777844971 | 12.78° C | 39% | 1014.2 hPa | 0 mm | - | 125 W/m² | - |
| 1777844669 | 12.78° C | 37% | 1014.2 hPa | 0 mm | - | 104 W/m² | - |
| 1777844366 | 13.33° C | 37% | 1014.3 hPa | 0 mm | - | 83 W/m² | - |
| 1777844064 | 12.78° C | 39% | 1014.1 hPa | 0 mm | - | 275 W/m² | - |
| 1777843760 | 13.33° C | 36% | 1014.3 hPa | 0 mm | - | 222 W/m² | - |
| 1777843458 | 13.33° C | 39% | 1014.1 hPa | 0 mm | - | 382 W/m² | - |
| 1777843155 | 12.78° C | 38% | 1014.3 hPa | 0 mm | - | 405 W/m² | - |
| 1777842851 | 12.78° C | 37% | 1014.3 hPa | 0 mm | - | 158 W/m² | - |
| 1777842548 | 12.22° C | 41% | 1014.4 hPa | 0 mm | - | 487 W/m² | - |
| 1777842245 | 12.22° C | 39% | 1014.4 hPa | 0 mm | - | 118 W/m² | - |
| 1777841945 | 12.78° C | 37% | 1014.4 hPa | 0 mm | - | 113 W/m² | - |
| 1777841642 | 12.78° C | 42% | 1014.4 hPa | 0 mm | - | 107 W/m² | - |
| 1777841338 | 12.78° C | 39% | 1014.6 hPa | 0 mm | - | 270 W/m² | - |
| 1777841035 | 12.78° C | 37% | 1014.8 hPa | 0 mm | - | 194 W/m² | - |
| 1777840733 | 12.78° C | 41% | 1014.4 hPa | 0 mm | - | 126 W/m² | - |
| 1777840430 | 11.67° C | 42% | 1014.6 hPa | 0 mm | - | 342 W/m² | - |
| 1777840127 | 12.22° C | 43% | 1014.8 hPa | 0 mm | - | 117 W/m² | - |
| 1777839825 | 12.22° C | 40% | 1014.8 hPa | 0 mm | - | 123 W/m² | - |
| 1777839523 | 12.22° C | 38% | 1014.9 hPa | 0 mm | - | 133 W/m² | - |
| 1777839220 | 12.78° C | 40% | 1014.8 hPa | 0 mm | - | 111 W/m² | - |
| 1777838918 | 12.78° C | 40% | 1014.7 hPa | 0 mm | - | 103 W/m² | - |
| 1777838613 | 12.78° C | 39% | 1014.9 hPa | 0 mm | - | 91 W/m² | - |
| 1777838310 | 12.22° C | 37% | 1014.9 hPa | 0 mm | - | 345 W/m² | - |
| 1777838007 | 12.22° C | 39% | 1015 hPa | 0 mm | - | 151 W/m² | - |
| 1777837704 | 12.22° C | 39% | 1015 hPa | 0 mm | - | 125 W/m² | - |
* Rain latest hour (hover to see other rain measurements)
** Current wind speed in m/s (hover to see current wind gust speed)